Pagina principale
METAR-TAF:

METAR-TAF

Aeroporti :

Newquay Cornwall, Inghilterra

latitudine: 50-26N, longitudine: 005-00W, altezza: 119 m

Osservazione

Il bollettino è stato emesso 7 ore e 54 minuti fa, alle 21:50 UTC
Vento 9 kt da nord/nord-est, variando fra nord e est/nord-est
Temperature 8°C
Umidità 87%
Pressione 1016 hPa
Visibilità 10 km o più
Nubi sparse ad un'altezza di 2600 ft

METAR: EGHQ 172150Z 03009KT 360V060 9999 SCT026 08/06 Q1016

Ora: 05:44 (05:44 UTC)

Previsione

Il bollettino è stato emesso 12 ore e 43 minuti fa, alle 17:01 UTC
Previsione valida dal 17 alle 18 UTC al 17 alle 22 UTC
Vento 6 kt da nord
Visibilità 10 km o più
Poco nuvoloso ad un'altezza di 2000 ft
Probabilità 40% :
Temporaneamente
dal 17 alle 18 UTC al 17 alle 22 UTC
Visibilità: 6000 m
Nuvoloso ad un'altezza di 1400 ft
rovesci di pioggia

TAF: EGHQ 171701Z 1718/1722 01006KT 9999 FEW020 PROB40 TEMPO 1718/1722 6000 SHRA BKN014

Osservazioni e previsioni meteorologiche di più di 4000 aeroporti (messaggi METAR e TAF).

Le stazioni disponibili sono rappresentate dai dischi gialli e rossi sulla carta.

Puntare il mouse per vedere il nome della stazione.

Clicca sopra per visualizzare le osservazioni e previsioni meteorologiche.

Per cambiare la mappa : fare clic sui pulsanti verdi con una croce nera per ingrandire, il pulsante verde con un trattino per diminuire, o sulla freccia verde per le mappe adiacenti.


METAR-TAF: